createdAt,value
2017-06-30T00:00:15.271Z,95.40
2017-06-30T00:02:43.602Z,95.10
2017-06-30T00:05:11.882Z,94.80
2017-06-30T00:07:40.173Z,95.20
2017-06-30T00:10:08.507Z,95.00
2017-06-30T00:12:37.586Z,95.30
2017-06-30T00:15:05.885Z,95.20
2017-06-30T00:17:34.207Z,95.30
2017-06-30T00:20:02.496Z,95.30
2017-06-30T00:22:30.779Z,95.50
2017-06-30T00:24:59.125Z,95.40
2017-06-30T00:27:27.414Z,95.50
2017-06-30T00:29:55.725Z,95.70
2017-06-30T00:32:24.030Z,95.50
2017-06-30T00:34:53.119Z,95.70
2017-06-30T00:37:21.450Z,95.70
2017-06-30T00:39:49.757Z,95.80
2017-06-30T00:42:18.069Z,95.70
2017-06-30T00:44:46.351Z,95.50
2017-06-30T00:47:14.697Z,95.70
2017-06-30T00:49:43.005Z,95.80
2017-06-30T00:52:11.315Z,95.50
2017-06-30T00:54:39.591Z,95.50
2017-06-30T00:57:07.976Z,95.80
2017-06-30T00:59:36.257Z,95.60
2017-06-30T01:02:04.596Z,95.50
2017-06-30T01:04:33.654Z,95.60
2017-06-30T01:07:02.054Z,95.60
2017-06-30T01:09:30.351Z,95.60
2017-06-30T01:11:58.753Z,95.70
2017-06-30T01:14:27.030Z,95.70
2017-06-30T01:16:55.320Z,95.60
2017-06-30T01:19:23.641Z,95.60
2017-06-30T01:21:51.922Z,95.50
2017-06-30T01:24:20.966Z,95.60
2017-06-30T01:26:49.302Z,95.60
2017-06-30T01:29:17.583Z,95.50
2017-06-30T01:31:45.861Z,95.50
2017-06-30T01:34:14.196Z,95.30
2017-06-30T01:36:42.543Z,95.60
2017-06-30T01:39:10.828Z,95.50
2017-06-30T01:41:39.106Z,95.40
2017-06-30T01:44:07.428Z,95.50
2017-06-30T01:46:35.755Z,95.20
2017-06-30T01:49:04.057Z,95.40
2017-06-30T01:51:32.374Z,95.40
2017-06-30T01:54:00.784Z,95.50
2017-06-30T01:56:29.401Z,95.60
2017-06-30T01:58:58.479Z,95.70
2017-06-30T02:01:26.772Z,95.70
2017-06-30T02:03:55.086Z,95.40
2017-06-30T02:06:24.191Z,95.50
2017-06-30T02:08:53.230Z,95.50
2017-06-30T02:11:21.565Z,95.40
2017-06-30T02:13:49.887Z,95.50
2017-06-30T02:16:18.970Z,95.60
2017-06-30T02:18:47.259Z,95.50
2017-06-30T02:21:15.610Z,95.70
2017-06-30T02:23:43.892Z,95.50
2017-06-30T02:26:12.173Z,95.70
2017-06-30T02:28:40.483Z,95.90
2017-06-30T02:31:08.830Z,95.90
2017-06-30T02:33:37.128Z,95.80
2017-06-30T02:36:05.484Z,95.90
2017-06-30T02:38:33.867Z,95.90
2017-06-30T02:41:02.164Z,95.90
2017-06-30T02:43:30.551Z,96.00
2017-06-30T02:45:58.826Z,96.10
2017-06-30T02:48:27.114Z,96.00
2017-06-30T02:50:55.460Z,95.90
2017-06-30T02:53:23.739Z,95.90
2017-06-30T02:55:52.026Z,96.00
2017-06-30T02:58:20.488Z,95.90
2017-06-30T03:00:48.773Z,95.80
2017-06-30T03:03:17.051Z,95.60
2017-06-30T03:05:45.388Z,95.60
2017-06-30T03:08:13.686Z,95.70
2017-06-30T03:10:42.014Z,95.50
2017-06-30T03:13:10.294Z,95.30
2017-06-30T03:15:38.574Z,95.20
2017-06-30T03:18:06.898Z,95.30
2017-06-30T03:20:35.196Z,95.30
2017-06-30T03:23:03.579Z,95.30
2017-06-30T03:25:31.876Z,95.60
2017-06-30T03:28:00.250Z,95.60
2017-06-30T03:30:28.590Z,95.50
2017-06-30T03:32:56.870Z,95.60
2017-06-30T03:35:25.164Z,95.30
2017-06-30T03:37:53.487Z,95.40
2017-06-30T03:40:21.897Z,95.30
2017-06-30T03:42:50.180Z,95.20
2017-06-30T03:45:18.463Z,95.10
2017-06-30T03:47:46.786Z,95.60
2017-06-30T03:50:15.844Z,95.30
2017-06-30T03:52:44.184Z,95.20
2017-06-30T03:55:12.466Z,95.10
2017-06-30T03:57:40.773Z,95.30
2017-06-30T04:00:09.863Z,95.20
2017-06-30T04:02:38.151Z,95.20
2017-06-30T04:05:06.436Z,95.20
2017-06-30T04:07:34.760Z,95.40
2017-06-30T04:10:03.049Z,95.30
2017-06-30T04:12:31.408Z,95.30
2017-06-30T04:14:59.950Z,95.50
2017-06-30T04:17:28.456Z,95.70
2017-06-30T04:19:56.785Z,95.70
2017-06-30T04:22:25.062Z,95.70
2017-06-30T04:24:53.389Z,95.70
2017-06-30T04:27:22.441Z,95.50
2017-06-30T04:29:50.882Z,95.50
2017-06-30T04:32:20.162Z,95.20
2017-06-30T04:34:48.912Z,95.20
2017-06-30T04:37:17.291Z,95.10
2017-06-30T04:39:46.537Z,95.00
2017-06-30T04:42:14.921Z,95.00
2017-06-30T04:44:43.618Z,95.10
2017-06-30T04:47:12.020Z,95.10
2017-06-30T04:49:41.458Z,95.00
2017-06-30T04:52:09.725Z,95.00
2017-06-30T04:54:38.362Z,95.10
2017-06-30T04:57:06.941Z,94.90
2017-06-30T04:59:35.513Z,95.10
2017-06-30T05:02:04.039Z,95.00
2017-06-30T05:04:32.503Z,95.20
2017-06-30T05:07:00.826Z,95.00
2017-06-30T05:09:29.271Z,95.10
2017-06-30T05:11:57.562Z,95.00
2017-06-30T05:14:25.993Z,94.80
2017-06-30T05:16:54.375Z,95.20
2017-06-30T05:19:23.693Z,95.00
2017-06-30T05:21:52.080Z,94.80
2017-06-30T05:24:20.367Z,94.70
2017-06-30T05:26:48.930Z,94.90
2017-06-30T05:29:17.659Z,94.80
2017-06-30T05:31:45.989Z,94.70
2017-06-30T05:34:15.099Z,94.70
2017-06-30T05:36:43.636Z,94.60
2017-06-30T05:39:12.035Z,94.50
2017-06-30T05:41:40.346Z,94.70
2017-06-30T05:44:08.915Z,94.70
2017-06-30T05:46:37.274Z,94.80
2017-06-30T05:49:05.625Z,94.60
2017-06-30T05:51:34.002Z,94.50
2017-06-30T05:54:02.274Z,94.90
2017-06-30T05:56:30.673Z,94.80
2017-06-30T05:58:59.067Z,94.80
2017-06-30T06:01:28.709Z,94.90
2017-06-30T06:03:57.814Z,94.50
2017-06-30T06:06:26.976Z,94.50
2017-06-30T06:08:55.407Z,94.50
2017-06-30T06:11:23.691Z,94.90
2017-06-30T06:13:52.031Z,95.00
2017-06-30T06:16:20.341Z,94.90
2017-06-30T06:18:48.716Z,94.70
2017-06-30T06:21:17.093Z,94.90
2017-06-30T06:23:46.168Z,94.40
2017-06-30T06:26:14.754Z,94.40
2017-06-30T06:28:43.829Z,94.70
2017-06-30T06:31:12.186Z,94.40
2017-06-30T06:33:41.280Z,94.40
2017-06-30T06:36:09.629Z,94.40
2017-06-30T06:38:37.979Z,94.20
2017-06-30T06:41:07.164Z,94.50
2017-06-30T06:43:35.465Z,94.50
2017-06-30T06:46:03.920Z,94.80
2017-06-30T06:48:32.383Z,94.30
2017-06-30T06:51:00.694Z,94.10
2017-06-30T06:53:29.209Z,94.50
2017-06-30T06:55:57.542Z,94.60
2017-06-30T06:58:26.855Z,94.50
2017-06-30T07:00:56.123Z,94.20
2017-06-30T07:03:24.552Z,94.10
2017-06-30T07:05:53.598Z,94.20
2017-06-30T07:08:22.182Z,94.20
2017-06-30T07:10:50.524Z,93.80
2017-06-30T07:13:18.961Z,93.50
2017-06-30T07:15:48.286Z,94.20
2017-06-30T07:18:16.588Z,93.90
2017-06-30T07:20:44.872Z,93.60
2017-06-30T07:23:13.206Z,93.70
2017-06-30T07:25:41.490Z,93.30
2017-06-30T07:28:10.161Z,93.60
2017-06-30T07:30:38.480Z,93.50
2017-06-30T07:33:06.872Z,93.70
2017-06-30T07:35:35.196Z,93.10
2017-06-30T07:38:03.522Z,93.00
2017-06-30T07:40:31.812Z,92.90
2017-06-30T07:43:00.123Z,93.10
2017-06-30T07:45:28.503Z,92.80
2017-06-30T07:47:56.777Z,93.00
2017-06-30T07:50:25.070Z,93.40
2017-06-30T07:52:53.386Z,93.50
2017-06-30T07:55:22.588Z,93.00
2017-06-30T07:57:50.970Z,93.00
2017-06-30T08:00:19.242Z,92.20
2017-06-30T08:02:47.546Z,92.90
2017-06-30T08:05:15.936Z,92.70
2017-06-30T08:07:44.322Z,93.10
2017-06-30T08:10:12.808Z,92.90
2017-06-30T08:12:41.092Z,92.40
2017-06-30T08:15:09.507Z,92.30
2017-06-30T08:17:37.826Z,92.40
2017-06-30T08:20:06.111Z,92.20
2017-06-30T08:22:35.184Z,92.50
2017-06-30T08:25:03.518Z,92.50
2017-06-30T08:27:31.944Z,92.40
2017-06-30T08:30:00.251Z,93.00
2017-06-30T08:32:28.653Z,93.10
2017-06-30T08:34:57.026Z,92.70
2017-06-30T08:37:25.419Z,92.40
2017-06-30T08:39:53.833Z,92.80
2017-06-30T08:42:22.114Z,92.70
2017-06-30T08:44:50.436Z,92.30
2017-06-30T08:47:19.515Z,91.30
2017-06-30T08:49:47.794Z,91.30
2017-06-30T08:52:16.137Z,91.20
2017-06-30T08:54:44.442Z,91.80
2017-06-30T08:57:12.720Z,91.90
2017-06-30T08:59:41.167Z,91.60
2017-06-30T09:02:09.450Z,91.40
2017-06-30T09:04:37.730Z,91.80
2017-06-30T09:07:06.067Z,91.40
2017-06-30T09:09:34.355Z,91.50
2017-06-30T09:12:02.716Z,91.10
2017-06-30T09:14:31.048Z,91.30
2017-06-30T09:16:59.324Z,91.60
2017-06-30T09:19:27.607Z,90.80
2017-06-30T09:21:56.700Z,91.20
2017-06-30T09:24:25.748Z,91.60
2017-06-30T09:26:54.026Z,91.60
2017-06-30T09:29:22.355Z,91.40
2017-06-30T09:31:50.641Z,91.50
2017-06-30T09:34:18.969Z,91.70
2017-06-30T09:36:48.160Z,91.10
2017-06-30T09:39:16.452Z,91.10
2017-06-30T09:41:44.742Z,91.20
2017-06-30T09:44:13.861Z,90.80
2017-06-30T09:46:42.907Z,91.50
2017-06-30T09:49:11.205Z,91.60
2017-06-30T09:51:39.638Z,91.60
2017-06-30T09:54:09.426Z,92.30
2017-06-30T09:56:37.721Z,92.30
2017-06-30T09:59:06.135Z,92.10
2017-06-30T10:01:34.432Z,92.20
2017-06-30T10:04:02.718Z,91.30
2017-06-30T10:06:31.052Z,91.80
2017-06-30T10:08:59.393Z,92.30
2017-06-30T10:11:27.695Z,92.40
2017-06-30T10:13:57.005Z,92.70
2017-06-30T10:16:25.392Z,92.70
2017-06-30T10:18:53.662Z,92.30
2017-06-30T10:21:22.067Z,92.20
2017-06-30T10:23:50.348Z,91.50
2017-06-30T10:26:18.682Z,91.40
2017-06-30T10:28:46.963Z,90.10
2017-06-30T10:31:16.023Z,90.30
2017-06-30T10:33:44.436Z,90.30
2017-06-30T10:36:12.815Z,90.60
2017-06-30T10:38:41.226Z,91.40
2017-06-30T10:41:09.520Z,90.90
2017-06-30T10:43:37.808Z,90.80
2017-06-30T10:46:06.192Z,91.30
2017-06-30T10:48:34.567Z,90.50
2017-06-30T10:51:02.871Z,90.40
2017-06-30T10:53:31.198Z,91.30
2017-06-30T10:55:59.483Z,90.60
2017-06-30T10:58:27.811Z,89.50
2017-06-30T11:00:56.095Z,90.40
2017-06-30T11:03:24.476Z,89.80
2017-06-30T11:05:52.759Z,89.30
2017-06-30T11:08:21.063Z,88.90
2017-06-30T11:10:49.387Z,89.70
2017-06-30T11:13:17.784Z,89.20
2017-06-30T11:15:46.125Z,89.80
2017-06-30T11:18:14.409Z,89.40
2017-06-30T11:20:42.745Z,90.50
2017-06-30T11:23:11.097Z,90.10
2017-06-30T11:25:39.383Z,89.40
2017-06-30T11:28:07.676Z,87.80
2017-06-30T11:30:36.015Z,87.80
2017-06-30T11:33:04.598Z,86.10
2017-06-30T11:35:32.887Z,86.90
2017-06-30T11:38:01.215Z,89.40
2017-06-30T11:40:29.560Z,87.80
2017-06-30T11:42:57.846Z,88.80
2017-06-30T11:45:26.137Z,89.30
2017-06-30T11:47:54.492Z,86.20
2017-06-30T11:50:22.774Z,84.00
2017-06-30T11:52:51.267Z,83.20
2017-06-30T11:55:19.604Z,82.10
2017-06-30T11:57:47.905Z,80.00
2017-06-30T12:00:16.272Z,81.70
2017-06-30T12:02:44.560Z,82.70
2017-06-30T12:05:12.978Z,81.60
2017-06-30T12:07:41.304Z,82.40
2017-06-30T12:10:09.651Z,80.40
2017-06-30T12:12:38.024Z,81.50
2017-06-30T12:15:06.356Z,81.30
2017-06-30T12:17:35.404Z,79.90
2017-06-30T12:20:03.734Z,79.70
2017-06-30T12:22:32.793Z,76.10
2017-06-30T12:25:01.124Z,76.20
2017-06-30T12:27:29.456Z,77.60
2017-06-30T12:29:57.730Z,75.70
2017-06-30T12:32:26.076Z,78.40
2017-06-30T12:34:54.354Z,78.70
2017-06-30T12:37:22.667Z,75.80
2017-06-30T12:39:50.983Z,74.30
2017-06-30T12:42:20.154Z,76.30
2017-06-30T12:44:48.439Z,76.30
2017-06-30T12:47:16.729Z,75.00
2017-06-30T12:49:45.057Z,74.60
2017-06-30T12:52:14.150Z,72.20
2017-06-30T12:54:42.452Z,72.20
2017-06-30T12:57:11.530Z,73.90
2017-06-30T12:59:39.922Z,74.00
2017-06-30T13:02:08.202Z,73.70
2017-06-30T13:04:36.536Z,71.70
2017-06-30T13:07:05.591Z,72.60
2017-06-30T13:09:33.889Z,72.50
2017-06-30T13:12:02.213Z,73.50
2017-06-30T13:14:31.276Z,73.00
2017-06-30T13:16:59.562Z,73.00
2017-06-30T13:19:28.038Z,72.20
2017-06-30T13:21:56.403Z,72.40
2017-06-30T13:24:25.488Z,70.90
2017-06-30T13:26:53.815Z,70.80
2017-06-30T13:29:22.094Z,69.20
2017-06-30T13:31:50.405Z,66.70
2017-06-30T13:34:18.761Z,69.00
2017-06-30T13:36:47.038Z,67.10
2017-06-30T13:39:16.126Z,67.30
2017-06-30T13:41:44.477Z,67.30
2017-06-30T13:44:12.750Z,67.80
2017-06-30T13:46:41.048Z,67.30
2017-06-30T13:49:09.540Z,65.80
2017-06-30T13:51:37.890Z,66.10
2017-06-30T13:54:06.196Z,67.60
2017-06-30T13:56:35.313Z,76.10
2017-06-30T13:59:04.376Z,80.20
2017-06-30T14:01:32.675Z,80.40
2017-06-30T14:04:01.017Z,84.50
2017-06-30T14:06:29.307Z,86.90
2017-06-30T14:08:57.598Z,87.30
2017-06-30T14:11:25.951Z,83.40
2017-06-30T14:13:55.010Z,82.70
2017-06-30T14:16:23.320Z,82.60
2017-06-30T14:18:51.662Z,83.60
2017-06-30T14:21:20.031Z,83.90
2017-06-30T14:23:49.092Z,83.10
2017-06-30T14:26:17.431Z,82.60
2017-06-30T14:28:46.478Z,82.30
2017-06-30T14:31:14.766Z,82.30
2017-06-30T14:33:43.094Z,85.40
2017-06-30T14:36:11.442Z,85.70
2017-06-30T14:38:39.723Z,87.60
2017-06-30T14:41:08.020Z,87.30
2017-06-30T14:43:36.354Z,86.50
2017-06-30T14:46:04.634Z,87.20
2017-06-30T14:48:32.931Z,88.40
2017-06-30T14:51:01.262Z,87.80
2017-06-30T14:53:29.718Z,87.10
2017-06-30T14:55:58.006Z,88.30
2017-06-30T14:58:26.400Z,87.80
2017-06-30T15:00:54.740Z,88.70
2017-06-30T15:03:23.046Z,90.00
2017-06-30T15:05:51.388Z,90.00
2017-06-30T15:08:20.452Z,91.10
2017-06-30T15:10:48.757Z,91.10
2017-06-30T15:13:17.355Z,91.30
2017-06-30T15:15:45.694Z,91.20
2017-06-30T15:18:14.006Z,91.10
2017-06-30T15:20:42.345Z,91.70
2017-06-30T15:23:11.451Z,91.90
2017-06-30T15:25:40.605Z,91.50
2017-06-30T15:28:08.926Z,91.50
2017-06-30T15:30:37.280Z,91.90
2017-06-30T15:33:05.567Z,92.10
2017-06-30T15:35:33.898Z,92.70
2017-06-30T15:38:02.246Z,92.50
2017-06-30T15:40:30.545Z,91.90
2017-06-30T15:42:58.848Z,92.20
2017-06-30T15:45:27.252Z,92.70
2017-06-30T15:47:55.646Z,92.80
2017-06-30T15:50:23.930Z,92.60
2017-06-30T15:52:52.437Z,92.50
2017-06-30T15:55:20.787Z,92.60
2017-06-30T15:57:49.081Z,92.50
2017-06-30T16:00:17.390Z,92.90
2017-06-30T16:02:45.782Z,93.00
2017-06-30T16:05:14.180Z,93.00
2017-06-30T16:07:42.525Z,92.70
2017-06-30T16:10:10.854Z,92.30
2017-06-30T16:12:39.242Z,92.70
2017-06-30T16:15:07.652Z,92.90
2017-06-30T16:17:36.749Z,91.90
2017-06-30T16:20:05.225Z,91.80
2017-06-30T16:22:33.576Z,92.30
2017-06-30T16:25:01.885Z,92.60
2017-06-30T16:27:30.210Z,91.60
2017-06-30T16:29:58.600Z,92.40
2017-06-30T16:32:27.038Z,92.00
2017-06-30T16:34:55.392Z,92.00
2017-06-30T16:37:23.714Z,90.90
2017-06-30T16:39:52.011Z,90.90
2017-06-30T16:42:20.353Z,91.60
2017-06-30T16:44:48.708Z,91.90
2017-06-30T16:47:16.982Z,91.10
2017-06-30T16:49:45.276Z,91.80
2017-06-30T16:52:13.595Z,90.60
2017-06-30T16:54:41.989Z,91.50
2017-06-30T16:57:10.382Z,91.30
2017-06-30T16:59:38.778Z,90.80
2017-06-30T17:02:07.175Z,91.00
2017-06-30T17:04:35.468Z,90.10
2017-06-30T17:07:05.956Z,90.40
2017-06-30T17:09:34.304Z,92.10
2017-06-30T17:12:02.696Z,91.40
2017-06-30T17:14:31.759Z,90.80
2017-06-30T17:17:00.074Z,90.40
2017-06-30T17:19:28.567Z,91.20
2017-06-30T17:21:56.849Z,91.20
2017-06-30T17:24:25.125Z,91.20
2017-06-30T17:26:53.565Z,91.60
2017-06-30T17:29:21.834Z,92.20
2017-06-30T17:31:50.120Z,91.60
2017-06-30T17:34:18.511Z,91.80
2017-06-30T17:36:46.843Z,93.40
2017-06-30T17:39:15.118Z,92.40
2017-06-30T17:41:44.203Z,92.90
2017-06-30T17:44:12.497Z,92.90
2017-06-30T17:46:40.895Z,93.40
2017-06-30T17:49:09.180Z,93.70
2017-06-30T17:51:37.505Z,93.90
2017-06-30T17:54:05.792Z,94.20
2017-06-30T17:56:34.114Z,93.70
2017-06-30T17:59:02.431Z,93.30
2017-06-30T18:01:30.823Z,93.40
2017-06-30T18:03:59.144Z,93.70
2017-06-30T18:06:28.190Z,94.80
2017-06-30T18:08:56.505Z,94.70
2017-06-30T18:11:24.791Z,93.60
2017-06-30T18:13:53.121Z,94.20
2017-06-30T18:16:22.300Z,94.10
2017-06-30T18:18:50.627Z,94.10
2017-06-30T18:21:18.954Z,94.30
2017-06-30T18:23:47.244Z,94.50
2017-06-30T18:26:15.546Z,94.70
2017-06-30T18:28:43.881Z,94.10
2017-06-30T18:31:12.185Z,93.10
2017-06-30T18:33:40.523Z,92.60
2017-06-30T18:36:08.812Z,92.80
2017-06-30T18:38:37.148Z,93.90
2017-06-30T18:41:05.491Z,93.50
2017-06-30T18:43:33.940Z,94.10
2017-06-30T18:46:02.229Z,93.60
2017-06-30T18:48:30.563Z,93.20
2017-06-30T18:50:58.955Z,93.30
2017-06-30T18:53:27.342Z,93.20
2017-06-30T18:55:55.753Z,93.60
2017-06-30T18:58:24.041Z,93.30
2017-06-30T19:00:52.384Z,93.30
2017-06-30T19:03:20.702Z,93.60
2017-06-30T19:05:49.034Z,93.60
2017-06-30T19:08:17.442Z,93.50
2017-06-30T19:10:45.867Z,93.20
2017-06-30T19:13:14.289Z,93.30
2017-06-30T19:15:42.578Z,93.00
2017-06-30T19:18:10.918Z,92.70
2017-06-30T19:20:39.207Z,93.60
2017-06-30T19:23:07.540Z,93.90
2017-06-30T19:25:36.009Z,93.30
2017-06-30T19:28:04.320Z,93.80
2017-06-30T19:30:34.240Z,93.60
2017-06-30T19:33:02.536Z,93.60
2017-06-30T19:35:30.910Z,93.10
2017-06-30T19:37:59.293Z,93.10
2017-06-30T19:40:27.612Z,93.30
2017-06-30T19:42:55.980Z,94.30
2017-06-30T19:45:24.370Z,93.60
2017-06-30T19:47:52.656Z,93.40
2017-06-30T19:50:20.939Z,93.30
2017-06-30T19:52:49.428Z,93.40
2017-06-30T19:55:17.838Z,93.90
2017-06-30T19:57:46.140Z,93.70
2017-06-30T20:00:15.260Z,93.10
2017-06-30T20:02:43.630Z,93.10
2017-06-30T20:05:11.921Z,93.60
2017-06-30T20:07:40.268Z,93.10
2017-06-30T20:10:08.541Z,93.10
2017-06-30T20:12:36.830Z,92.60
2017-06-30T20:15:05.205Z,93.00
2017-06-30T20:17:33.536Z,92.70
2017-06-30T20:20:01.828Z,92.90
2017-06-30T20:22:30.242Z,93.40
2017-06-30T20:24:58.644Z,93.90
2017-06-30T20:27:26.994Z,93.00
2017-06-30T20:29:55.293Z,93.20
2017-06-30T20:32:23.705Z,92.80
2017-06-30T20:34:52.000Z,93.00
2017-06-30T20:37:20.285Z,93.50
2017-06-30T20:39:48.684Z,93.20
2017-06-30T20:42:16.999Z,92.70
2017-06-30T20:44:46.074Z,92.80
2017-06-30T20:47:14.406Z,92.80
2017-06-30T20:49:42.691Z,92.70
2017-06-30T20:52:11.739Z,93.00
2017-06-30T20:54:40.087Z,93.00
2017-06-30T20:57:08.362Z,92.80
2017-06-30T20:59:37.546Z,93.50
2017-06-30T21:02:05.838Z,93.70
2017-06-30T21:04:34.140Z,93.20
2017-06-30T21:07:02.515Z,93.30
2017-06-30T21:09:30.812Z,93.40
2017-06-30T21:11:59.088Z,93.50
2017-06-30T21:14:27.403Z,93.50
2017-06-30T21:16:55.791Z,93.50
2017-06-30T21:19:24.127Z,93.40
2017-06-30T21:21:52.471Z,93.50
2017-06-30T21:24:20.762Z,93.60
2017-06-30T21:26:49.091Z,93.60
2017-06-30T21:29:17.422Z,93.60
2017-06-30T21:31:45.713Z,93.90
2017-06-30T21:34:14.051Z,93.70
2017-06-30T21:36:42.412Z,93.50
2017-06-30T21:39:11.489Z,93.60
2017-06-30T21:41:39.772Z,93.60
2017-06-30T21:44:08.150Z,93.50
2017-06-30T21:46:36.474Z,93.40
2017-06-30T21:49:04.759Z,93.60
2017-06-30T21:51:33.109Z,93.60
2017-06-30T21:54:01.415Z,93.80
2017-06-30T21:56:30.639Z,93.90
2017-06-30T21:58:58.999Z,93.90
2017-06-30T22:01:27.423Z,93.80
2017-06-30T22:03:55.703Z,93.60
2017-06-30T22:06:24.207Z,93.60
2017-06-30T22:08:52.547Z,93.50
2017-06-30T22:11:21.601Z,93.60
2017-06-30T22:13:49.884Z,93.60
2017-06-30T22:16:18.202Z,93.60
2017-06-30T22:18:46.596Z,93.40
2017-06-30T22:21:15.015Z,93.50
2017-06-30T22:23:43.345Z,93.50
2017-06-30T22:26:11.650Z,93.60
2017-06-30T22:28:40.004Z,93.80
2017-06-30T22:31:08.435Z,93.70
2017-06-30T22:33:36.712Z,93.70
2017-06-30T22:36:04.989Z,93.80
2017-06-30T22:38:33.426Z,93.70
2017-06-30T22:41:02.510Z,93.70
2017-06-30T22:43:30.846Z,93.70
2017-06-30T22:45:59.139Z,93.60
2017-06-30T22:48:27.422Z,93.60
2017-06-30T22:50:55.776Z,93.40
2017-06-30T22:53:24.076Z,93.50
2017-06-30T22:55:52.363Z,93.60
2017-06-30T22:58:20.671Z,93.50
2017-06-30T23:00:51.124Z,93.80
2017-06-30T23:03:19.465Z,93.70
2017-06-30T23:05:47.752Z,93.90
2017-06-30T23:08:16.035Z,93.90
2017-06-30T23:10:44.365Z,93.50
2017-06-30T23:13:13.410Z,93.70
2017-06-30T23:15:41.729Z,93.60
2017-06-30T23:18:10.040Z,93.60
2017-06-30T23:20:38.514Z,93.50
2017-06-30T23:23:06.789Z,93.60
2017-06-30T23:25:35.211Z,93.90
2017-06-30T23:28:03.488Z,93.50
2017-06-30T23:30:31.763Z,93.60
2017-06-30T23:33:00.079Z,93.60
2017-06-30T23:35:28.463Z,93.70
2017-06-30T23:37:56.857Z,93.90
2017-06-30T23:40:25.179Z,93.70
2017-06-30T23:42:53.498Z,93.60
2017-06-30T23:45:21.786Z,93.80
2017-06-30T23:47:50.122Z,93.80
2017-06-30T23:50:18.403Z,94.00
2017-06-30T23:52:46.736Z,93.70
2017-06-30T23:55:15.010Z,94.00
2017-06-30T23:57:43.360Z,93.90
